createdAt,value
2023-03-02T00:01:43.828Z,75.69
2023-03-02T00:04:16.417Z,75.52
2023-03-02T00:06:45.320Z,75.83
2023-03-02T00:09:12.336Z,75.68
2023-03-02T00:11:40.106Z,75.66
2023-03-02T00:14:07.524Z,75.52
2023-03-02T00:16:35.131Z,75.97
2023-03-02T00:19:02.713Z,76.20
2023-03-02T00:21:31.886Z,75.89
2023-03-02T00:23:58.968Z,76.26
2023-03-02T00:26:26.403Z,75.82
2023-03-02T00:28:53.558Z,75.95
2023-03-02T00:31:21.754Z,75.83
2023-03-02T00:33:48.947Z,75.88
2023-03-02T00:36:20.764Z,75.59
2023-03-02T00:38:48.672Z,75.89
2023-03-02T00:41:17.612Z,75.79
2023-03-02T00:43:44.779Z,75.56
2023-03-02T00:46:14.717Z,75.39
2023-03-02T00:48:42.232Z,75.46
2023-03-02T00:51:11.048Z,75.92
2023-03-02T00:53:38.756Z,75.71
2023-03-02T00:56:08.649Z,75.50
2023-03-02T00:58:36.582Z,75.60
2023-03-02T01:01:10.410Z,75.82
2023-03-02T01:03:38.465Z,76.08
2023-03-02T01:06:06.758Z,75.83
2023-03-02T01:08:33.815Z,75.99
2023-03-02T01:11:01.633Z,75.90
2023-03-02T01:13:29.158Z,76.27
2023-03-02T01:16:01.885Z,76.63
2023-03-02T01:18:29.128Z,76.04
2023-03-02T01:21:08.273Z,76.23
2023-03-02T01:23:35.624Z,76.32
2023-03-02T01:26:03.917Z,76.54
2023-03-02T01:28:31.105Z,76.49
2023-03-02T01:31:01.363Z,76.67
2023-03-02T01:33:28.608Z,76.77
2023-03-02T01:35:56.083Z,76.49
2023-03-02T01:38:23.243Z,77.02
2023-03-02T01:40:50.603Z,76.63
2023-03-02T01:43:17.807Z,76.75
2023-03-02T01:45:55.728Z,77.04
2023-03-02T01:48:36.397Z,76.90
2023-03-02T01:51:05.900Z,76.86
2023-03-02T01:53:35.304Z,76.50
2023-03-02T01:56:04.412Z,76.62
2023-03-02T01:58:37.178Z,76.70
2023-03-02T02:01:05.394Z,76.65
2023-03-02T02:03:32.592Z,76.72
2023-03-02T02:06:27.515Z,76.30
2023-03-02T02:08:57.552Z,76.66
2023-03-02T02:11:26.785Z,76.52
2023-03-02T02:14:01.947Z,76.33
2023-03-02T02:16:32.845Z,76.34
2023-03-02T02:19:01.806Z,76.28
2023-03-02T02:21:29.684Z,76.30
2023-03-02T02:24:06.316Z,75.91
2023-03-02T02:27:01.825Z,76.05
2023-03-02T02:29:35.998Z,76.26
2023-03-02T02:32:26.680Z,76.06
2023-03-02T02:35:02.921Z,76.05
2023-03-02T02:37:38.601Z,76.25
2023-03-02T02:40:10.660Z,75.88
2023-03-02T02:42:43.036Z,76.08
2023-03-02T02:45:32.998Z,76.06
2023-03-02T02:48:04.445Z,75.87
2023-03-02T02:50:35.280Z,75.90
2023-03-02T02:53:20.517Z,75.78
2023-03-02T02:55:50.441Z,75.57
2023-03-02T02:58:29.039Z,75.65
2023-03-02T03:00:56.389Z,75.59
2023-03-02T03:03:34.765Z,75.57
2023-03-02T03:06:06.937Z,75.45
2023-03-02T03:08:46.467Z,75.20
2023-03-02T03:11:16.154Z,75.20
2023-03-02T03:13:44.553Z,75.47
2023-03-02T03:16:15.922Z,75.45
2023-03-02T03:18:47.204Z,75.51
2023-03-02T03:21:14.330Z,75.22
2023-03-02T03:23:41.750Z,75.19
2023-03-02T03:26:10.049Z,75.33
2023-03-02T03:28:37.675Z,75.33
2023-03-02T03:31:05.340Z,75.23
2023-03-02T03:33:32.795Z,75.03
2023-03-02T03:36:00.820Z,75.05
2023-03-02T03:38:28.699Z,74.95
2023-03-02T03:40:56.527Z,75.07
2023-03-02T03:43:24.237Z,75.13
2023-03-02T03:45:52.325Z,75.06
2023-03-02T03:48:19.824Z,74.96
2023-03-02T03:50:46.860Z,75.12
2023-03-02T03:53:14.546Z,75.07
2023-03-02T03:55:41.563Z,75.23
2023-03-02T03:58:12.484Z,74.87
2023-03-02T04:00:39.498Z,74.74
2023-03-02T04:03:07.336Z,75.07
2023-03-02T04:05:34.860Z,74.78
2023-03-02T04:08:02.360Z,74.61
2023-03-02T04:10:30.042Z,74.66
2023-03-02T04:12:57.401Z,74.65
2023-03-02T04:15:27.221Z,74.68
2023-03-02T04:17:54.654Z,74.69
2023-03-02T04:20:23.054Z,75.14
2023-03-02T04:22:52.504Z,75.58
2023-03-02T04:25:22.277Z,75.84
2023-03-02T04:27:51.364Z,75.79
2023-03-02T04:30:22.845Z,76.33
2023-03-02T04:32:54.632Z,76.31
2023-03-02T04:35:22.325Z,76.69
2023-03-02T04:37:50.029Z,76.73
2023-03-02T04:40:17.746Z,76.86
2023-03-02T04:42:45.098Z,76.85
2023-03-02T04:45:13.380Z,76.77
2023-03-02T04:47:41.911Z,76.29
2023-03-02T04:50:11.645Z,76.16
2023-03-02T04:52:39.098Z,76.18
2023-03-02T04:55:06.943Z,75.91
2023-03-02T04:57:34.453Z,76.05
2023-03-02T05:00:01.449Z,76.00
2023-03-02T05:02:28.994Z,75.82
2023-03-02T05:04:56.306Z,75.95
2023-03-02T05:07:23.659Z,75.91
2023-03-02T05:09:50.747Z,76.40
2023-03-02T05:12:19.401Z,75.96
2023-03-02T05:14:46.485Z,76.58
2023-03-02T05:17:14.344Z,76.67
2023-03-02T05:19:41.441Z,76.40
2023-03-02T05:22:08.895Z,76.31
2023-03-02T05:24:35.880Z,76.24
2023-03-02T05:27:03.494Z,76.06
2023-03-02T05:29:30.499Z,75.90
2023-03-02T05:31:58.547Z,75.16
2023-03-02T05:34:25.828Z,74.21
2023-03-02T05:36:54.246Z,74.35
2023-03-02T05:39:21.394Z,74.51
2023-03-02T05:41:49.861Z,74.39
2023-03-02T05:44:16.933Z,73.56
2023-03-02T05:46:44.406Z,73.40
2023-03-02T05:49:11.558Z,73.77
2023-03-02T05:51:39.121Z,73.84
2023-03-02T05:54:06.200Z,73.73
2023-03-02T05:56:34.158Z,73.99
2023-03-02T05:59:01.422Z,73.42
2023-03-02T06:01:29.243Z,72.97
2023-03-02T06:03:56.334Z,71.38
2023-03-02T06:06:23.806Z,71.03
2023-03-02T06:08:52.211Z,70.23
2023-03-02T06:11:19.730Z,70.41
2023-03-02T06:13:47.976Z,70.74
2023-03-02T06:16:15.327Z,69.80
2023-03-02T06:18:42.395Z,69.20
2023-03-02T06:21:10.400Z,68.83
2023-03-02T06:23:37.427Z,68.41
2023-03-02T06:26:09.256Z,68.49
2023-03-02T06:28:49.672Z,67.69
2023-03-02T06:31:23.237Z,67.02
2023-03-02T06:33:50.820Z,66.99
2023-03-02T06:36:18.373Z,67.08
2023-03-02T06:38:46.106Z,65.59
2023-03-02T06:41:13.147Z,64.06
2023-03-02T06:44:02.045Z,64.23
2023-03-02T06:49:14.164Z,63.24
2023-03-02T06:51:41.438Z,62.80
2023-03-02T06:54:10.081Z,62.62
2023-03-02T06:56:37.826Z,62.17
2023-03-02T06:59:05.971Z,60.68
2023-03-02T07:04:31.720Z,60.39
2023-03-02T07:07:02.745Z,60.17
2023-03-02T07:09:35.774Z,59.34
2023-03-02T07:12:07.320Z,59.76
2023-03-02T07:14:41.946Z,58.86
2023-03-02T07:26:10.003Z,56.52
2023-03-02T07:28:39.830Z,56.12
2023-03-02T07:36:42.486Z,53.61
2023-03-02T07:45:56.108Z,52.92
2023-03-02T07:48:39.466Z,52.82
2023-03-02T07:54:10.584Z,49.78
2023-03-02T07:56:44.003Z,50.27
2023-03-02T07:59:14.333Z,50.02
2023-03-02T08:01:41.736Z,50.39
2023-03-02T08:04:09.021Z,49.82
2023-03-02T08:06:37.475Z,49.63
2023-03-02T08:09:04.892Z,49.60
2023-03-02T08:11:32.899Z,49.96
2023-03-02T08:14:01.622Z,50.00
2023-03-02T08:16:30.013Z,50.32
2023-03-02T08:18:59.666Z,49.96
2023-03-02T08:21:28.625Z,49.56
2023-03-02T08:23:55.788Z,48.54
2023-03-02T08:26:23.212Z,48.88
2023-03-02T08:28:50.427Z,48.87
2023-03-02T08:31:18.111Z,49.33
2023-03-02T08:33:46.231Z,49.92
2023-03-02T08:36:19.128Z,50.07
2023-03-02T08:38:48.060Z,50.10
2023-03-02T08:41:19.112Z,50.15
2023-03-02T08:43:46.727Z,50.24
2023-03-02T08:46:18.723Z,48.79
2023-03-02T08:48:46.775Z,48.64
2023-03-02T08:51:17.143Z,48.57
2023-03-02T08:53:47.732Z,48.52
2023-03-02T08:56:20.912Z,47.54
2023-03-02T08:58:49.744Z,47.10
2023-03-02T09:01:18.284Z,46.93
2023-03-02T09:03:45.594Z,42.95
2023-03-02T09:06:13.461Z,42.73
2023-03-02T09:08:41.251Z,42.11
2023-03-02T09:11:08.829Z,40.33
2023-03-02T09:13:36.125Z,39.56
2023-03-02T09:16:05.660Z,40.12
2023-03-02T09:18:32.838Z,41.52
2023-03-02T09:21:00.541Z,42.12
2023-03-02T09:26:13.030Z,42.87
2023-03-02T09:28:40.161Z,42.76
2023-03-02T09:31:09.059Z,39.95
2023-03-02T09:33:36.580Z,38.19
2023-03-02T09:36:09.771Z,35.95
2023-03-02T09:38:36.891Z,34.96
2023-03-02T09:42:02.572Z,32.80
2023-03-02T09:44:42.901Z,32.40
2023-03-02T09:47:36.022Z,29.94
2023-03-02T09:50:30.607Z,29.46
2023-03-02T09:53:17.080Z,28.45
2023-03-02T09:55:47.649Z,27.67
2023-03-02T09:58:20.576Z,27.31
2023-03-02T10:00:48.247Z,26.35
2023-03-02T10:03:27.467Z,26.88
2023-03-02T10:06:02.650Z,23.87
2023-03-02T10:11:49.404Z,26.89
2023-03-02T10:14:42.950Z,27.50
2023-03-02T10:17:54.166Z,29.05
2023-03-02T10:20:44.528Z,28.89
2023-03-02T10:23:56.406Z,28.57
2023-03-02T10:26:23.778Z,28.84
2023-03-02T10:29:00.605Z,28.13
2023-03-02T10:31:30.608Z,27.11
2023-03-02T10:33:58.801Z,27.31
2023-03-02T10:36:30.190Z,28.35
2023-03-02T10:38:58.593Z,27.99
2023-03-02T10:41:56.267Z,28.30
2023-03-02T10:44:30.115Z,28.71
2023-03-02T10:46:58.041Z,29.86
2023-03-02T10:49:27.172Z,30.51
2023-03-02T10:52:23.874Z,31.06
2023-03-02T10:55:04.250Z,31.88
2023-03-02T10:57:43.876Z,30.94
2023-03-02T11:00:23.651Z,31.31
2023-03-02T11:02:55.469Z,32.58
2023-03-02T11:05:36.194Z,32.28
2023-03-02T11:08:10.093Z,32.54
2023-03-02T11:13:31.176Z,28.71
2023-03-02T11:16:18.251Z,29.88
2023-03-02T11:18:59.514Z,30.32
2023-03-02T11:21:55.870Z,31.38
2023-03-02T11:24:33.663Z,27.98
2023-03-02T11:27:09.986Z,26.16
2023-03-02T11:30:04.021Z,25.50
2023-03-02T11:32:58.160Z,24.34
2023-03-02T11:35:33.650Z,23.96
2023-03-02T11:41:34.125Z,25.39
2023-03-02T11:44:21.718Z,25.65
2023-03-02T11:46:54.198Z,27.50
2023-03-02T11:49:34.493Z,27.37
2023-03-02T11:52:04.194Z,28.13
2023-03-02T11:54:55.501Z,28.69
2023-03-02T11:57:34.978Z,29.99
2023-03-02T12:00:05.160Z,30.52
2023-03-02T12:02:33.317Z,29.70
2023-03-02T12:05:07.916Z,27.52
2023-03-02T12:07:36.128Z,26.82
2023-03-02T12:10:28.529Z,27.87
2023-03-02T12:13:14.478Z,28.73
2023-03-02T12:15:45.687Z,30.30
2023-03-02T12:18:31.505Z,30.38
2023-03-02T12:21:03.245Z,31.20
2023-03-02T12:23:33.078Z,30.37
2023-03-02T12:26:06.114Z,29.72
2023-03-02T12:28:37.686Z,30.09
2023-03-02T12:31:11.834Z,30.23
2023-03-02T12:33:50.604Z,31.68
2023-03-02T12:36:32.607Z,30.87
2023-03-02T12:39:39.105Z,31.86
2023-03-02T12:42:15.051Z,31.48
2023-03-02T12:45:04.410Z,29.19
2023-03-02T12:47:32.639Z,27.42
2023-03-02T12:50:07.989Z,27.04
2023-03-02T12:52:37.468Z,26.66
2023-03-02T12:55:19.764Z,28.49
2023-03-02T12:57:53.592Z,29.62
2023-03-02T13:00:24.970Z,31.32
2023-03-02T13:02:54.371Z,32.89
2023-03-02T13:05:25.333Z,33.16
2023-03-02T13:11:05.522Z,33.91
2023-03-02T13:13:32.912Z,33.14
2023-03-02T13:16:26.012Z,31.95
2023-03-02T13:19:00.920Z,31.03
2023-03-02T13:21:34.831Z,32.51
2023-03-02T13:24:02.377Z,32.12
2023-03-02T13:26:35.528Z,33.35
2023-03-02T13:29:23.196Z,34.28
2023-03-02T13:31:50.648Z,36.06
2023-03-02T13:34:23.875Z,37.01
2023-03-02T13:36:51.463Z,37.70
2023-03-02T13:39:29.612Z,36.25
2023-03-02T13:42:01.649Z,36.19
2023-03-02T13:44:40.699Z,36.83
2023-03-02T13:47:23.162Z,36.79
2023-03-02T13:49:50.985Z,37.75
2023-03-02T13:52:29.727Z,39.21
2023-03-02T13:54:57.093Z,39.88
2023-03-02T13:57:32.985Z,40.32
2023-03-02T14:00:00.647Z,40.60
2023-03-02T14:02:30.334Z,39.88
2023-03-02T14:04:57.846Z,38.91
2023-03-02T14:07:28.402Z,38.87
2023-03-02T14:09:57.531Z,39.55
2023-03-02T14:12:28.403Z,39.23
2023-03-02T14:15:00.222Z,39.54
2023-03-02T14:17:27.498Z,39.95
2023-03-02T14:19:55.704Z,39.95
2023-03-02T14:22:25.579Z,39.57
2023-03-02T14:24:53.799Z,39.22
2023-03-02T14:27:22.101Z,39.55
2023-03-02T14:29:49.552Z,39.66
2023-03-02T14:32:17.562Z,40.27
2023-03-02T14:34:45.018Z,39.89
2023-03-02T14:37:18.487Z,39.74
2023-03-02T14:39:55.511Z,40.27
2023-03-02T14:42:24.219Z,40.50
2023-03-02T14:44:52.971Z,40.78
2023-03-02T14:47:21.859Z,40.73
2023-03-02T14:50:00.543Z,41.02
2023-03-02T14:52:35.954Z,41.21
2023-03-02T14:55:07.782Z,41.66
2023-03-02T14:57:38.641Z,41.78
2023-03-02T15:00:09.093Z,42.02
2023-03-02T15:02:36.275Z,41.94
2023-03-02T15:05:03.991Z,42.35
2023-03-02T15:07:31.044Z,42.70
2023-03-02T15:09:59.057Z,42.81
2023-03-02T15:12:26.243Z,42.91
2023-03-02T15:14:53.764Z,42.83
2023-03-02T15:17:20.922Z,42.99
2023-03-02T15:19:48.402Z,43.41
2023-03-02T15:22:15.905Z,43.65
2023-03-02T15:24:43.343Z,43.58
2023-03-02T15:27:10.453Z,43.52
2023-03-02T15:29:38.050Z,43.76
2023-03-02T15:32:05.337Z,44.02
2023-03-02T15:34:33.901Z,43.95
2023-03-02T15:37:01.144Z,44.60
2023-03-02T15:39:28.497Z,44.50
2023-03-02T15:41:55.564Z,44.99
2023-03-02T15:44:25.067Z,44.96
2023-03-02T15:47:02.486Z,45.37
2023-03-02T15:49:32.343Z,45.85
2023-03-02T15:54:41.243Z,46.48
2023-03-02T15:57:33.635Z,46.59
2023-03-02T16:00:02.144Z,47.31
2023-03-02T16:02:30.335Z,48.35
2023-03-02T16:04:58.113Z,49.38
2023-03-02T16:07:25.417Z,50.02
2023-03-02T16:09:53.915Z,49.98
2023-03-02T16:12:23.509Z,50.22
2023-03-02T16:14:54.074Z,50.71
2023-03-02T16:17:21.555Z,50.38
2023-03-02T16:19:48.970Z,50.60
2023-03-02T16:22:15.969Z,50.40
2023-03-02T16:24:43.393Z,50.33
2023-03-02T16:27:10.544Z,51.31
2023-03-02T16:29:38.217Z,51.25
2023-03-02T16:32:06.577Z,51.41
2023-03-02T16:34:34.112Z,51.60
2023-03-02T16:37:01.195Z,51.82
2023-03-02T16:39:29.592Z,52.29
2023-03-02T16:44:49.934Z,52.22
2023-03-02T16:47:17.051Z,52.67
2023-03-02T16:49:44.431Z,52.75
2023-03-02T16:52:11.513Z,52.56
2023-03-02T16:54:38.996Z,53.05
2023-03-02T16:57:06.012Z,53.13
2023-03-02T16:59:33.521Z,53.21
2023-03-02T17:02:00.650Z,53.60
2023-03-02T17:04:28.108Z,54.63
2023-03-02T17:07:02.422Z,54.90
2023-03-02T17:09:30.952Z,55.08
2023-03-02T17:12:02.001Z,55.05
2023-03-02T17:14:29.960Z,55.29
2023-03-02T17:16:57.137Z,55.57
2023-03-02T17:19:29.551Z,56.06
2023-03-02T17:21:58.700Z,56.39
2023-03-02T17:24:28.047Z,56.91
2023-03-02T17:26:55.710Z,57.20
2023-03-02T17:29:23.338Z,57.30
2023-03-02T17:31:50.354Z,57.40
2023-03-02T17:34:19.397Z,57.57
2023-03-02T17:36:46.523Z,58.08
2023-03-02T17:39:13.979Z,58.20
2023-03-02T17:41:40.982Z,58.73
2023-03-02T17:44:34.810Z,58.50
2023-03-02T17:47:04.016Z,58.76
2023-03-02T17:49:31.639Z,59.35
2023-03-02T17:51:58.839Z,59.33
2023-03-02T17:54:27.029Z,59.80
2023-03-02T17:56:54.104Z,59.25
2023-03-02T17:59:21.970Z,59.79
2023-03-02T18:01:49.002Z,59.60
2023-03-02T18:04:16.565Z,59.57
2023-03-02T18:06:43.691Z,59.68
2023-03-02T18:09:11.225Z,59.91
2023-03-02T18:11:43.944Z,59.71
2023-03-02T18:14:18.111Z,59.39
2023-03-02T18:16:45.782Z,59.51
2023-03-02T18:19:15.499Z,59.52
2023-03-02T18:21:43.007Z,59.19
2023-03-02T18:24:10.565Z,59.19
2023-03-02T18:26:38.202Z,58.85
2023-03-02T18:29:06.354Z,58.91
2023-03-02T18:31:34.485Z,59.40
2023-03-02T18:34:04.817Z,59.41
2023-03-02T18:36:31.926Z,59.79
2023-03-02T18:38:59.785Z,60.54
2023-03-02T18:41:26.796Z,60.78
2023-03-02T18:43:54.341Z,60.98
2023-03-02T18:46:27.404Z,61.34
2023-03-02T18:48:56.194Z,61.67
2023-03-02T18:51:24.404Z,61.74
2023-03-02T18:53:52.660Z,61.65
2023-03-02T18:56:20.436Z,61.98
2023-03-02T18:58:49.762Z,62.79
2023-03-02T19:01:20.068Z,63.31
2023-03-02T19:03:49.161Z,63.66
2023-03-02T19:06:16.657Z,63.64
2023-03-02T19:08:44.473Z,63.38
2023-03-02T19:11:13.505Z,64.21
2023-03-02T19:13:41.224Z,64.68
2023-03-02T19:16:08.445Z,64.86
2023-03-02T19:18:37.964Z,64.51
2023-03-02T19:21:06.690Z,64.79
2023-03-02T19:23:34.637Z,64.81
2023-03-02T19:26:02.329Z,65.28
2023-03-02T19:28:30.097Z,65.09
2023-03-02T19:30:57.230Z,65.27
2023-03-02T19:33:25.238Z,64.93
2023-03-02T19:35:52.629Z,65.63
2023-03-02T19:38:20.967Z,65.66
2023-03-02T19:40:51.236Z,65.80
2023-03-02T19:43:20.507Z,65.82
2023-03-02T19:45:47.644Z,66.06
2023-03-02T19:48:18.339Z,66.11
2023-03-02T19:50:46.219Z,66.44
2023-03-02T19:53:14.374Z,66.44
2023-03-02T19:55:45.300Z,67.16
2023-03-02T19:58:31.187Z,66.99
2023-03-02T20:01:00.589Z,67.56
2023-03-02T20:03:28.120Z,67.71
2023-03-02T20:05:56.383Z,67.55
2023-03-02T20:08:23.551Z,67.53
2023-03-02T20:10:51.257Z,67.92
2023-03-02T20:13:18.417Z,67.95
2023-03-02T20:15:47.499Z,68.09
2023-03-02T20:18:20.359Z,68.38
2023-03-02T20:20:48.628Z,68.71
2023-03-02T20:23:19.005Z,69.26
2023-03-02T20:25:48.420Z,69.37
2023-03-02T20:28:18.493Z,69.61
2023-03-02T20:30:54.072Z,69.39
2023-03-02T20:33:25.418Z,69.70
2023-03-02T20:35:54.794Z,70.24
2023-03-02T20:38:29.317Z,70.10
2023-03-02T20:40:57.108Z,70.14
2023-03-02T20:43:25.080Z,70.34
2023-03-02T20:45:58.130Z,70.50
2023-03-02T20:48:26.450Z,70.78
2023-03-02T20:50:55.040Z,71.06
2023-03-02T20:53:22.564Z,70.83
2023-03-02T20:55:49.955Z,71.23
2023-03-02T20:58:17.380Z,70.95
2023-03-02T21:00:45.613Z,71.27
2023-03-02T21:03:12.823Z,71.44
2023-03-02T21:05:41.641Z,71.36
2023-03-02T21:08:14.834Z,71.22
2023-03-02T21:10:43.528Z,71.20
2023-03-02T21:13:12.002Z,71.70
2023-03-02T21:15:41.223Z,71.71
2023-03-02T21:18:08.466Z,72.03
2023-03-02T21:20:36.586Z,72.14
2023-03-02T21:23:05.540Z,72.24
2023-03-02T21:25:34.378Z,71.96
2023-03-02T21:28:01.568Z,72.73
2023-03-02T21:30:31.826Z,72.27
2023-03-02T21:32:59.022Z,72.66
2023-03-02T21:35:26.778Z,72.66
2023-03-02T21:37:58.725Z,73.00
2023-03-02T21:40:31.938Z,73.41
2023-03-02T21:43:00.685Z,73.56
2023-03-02T21:45:29.070Z,73.45
2023-03-02T21:47:56.167Z,73.72
2023-03-02T21:50:30.604Z,74.04
2023-03-02T21:53:00.247Z,73.82
2023-03-02T21:55:29.387Z,74.31
2023-03-02T21:57:57.468Z,74.02
2023-03-02T22:00:32.928Z,74.33
2023-03-02T22:03:01.074Z,74.86
2023-03-02T22:05:29.343Z,74.97
2023-03-02T22:07:56.864Z,75.10
2023-03-02T22:10:39.682Z,75.03
2023-03-02T22:17:17.859Z,75.54
2023-03-02T22:19:45.542Z,75.12
2023-03-02T22:22:24.597Z,75.26
2023-03-02T22:24:52.870Z,75.19
2023-03-02T22:27:29.365Z,75.71
2023-03-02T22:29:59.116Z,75.74
2023-03-02T22:32:31.557Z,75.82
2023-03-02T22:35:02.921Z,75.78
2023-03-02T22:37:36.444Z,75.84
2023-03-02T22:40:18.766Z,75.76
2023-03-02T22:42:46.154Z,76.13
2023-03-02T22:46:00.487Z,76.52
2023-03-02T22:48:36.247Z,76.84
2023-03-02T22:51:14.453Z,76.95
2023-03-02T22:53:48.328Z,76.89
2023-03-02T22:56:34.846Z,76.86
2023-03-02T22:59:14.286Z,77.27
2023-03-02T23:01:44.560Z,77.60
2023-03-02T23:04:23.770Z,77.63
2023-03-02T23:06:56.573Z,77.56
2023-03-02T23:09:33.160Z,77.11
2023-03-02T23:12:09.881Z,77.55
2023-03-02T23:15:17.256Z,78.09
2023-03-02T23:17:46.544Z,77.76
2023-03-02T23:20:16.410Z,77.99
2023-03-02T23:22:44.885Z,77.80
2023-03-02T23:25:14.399Z,77.68
2023-03-02T23:27:41.579Z,78.50
2023-03-02T23:30:09.910Z,79.00
2023-03-02T23:32:36.979Z,79.37
2023-03-02T23:35:05.591Z,79.32
2023-03-02T23:37:33.407Z,79.43
2023-03-02T23:40:01.089Z,79.42
2023-03-02T23:42:28.182Z,79.60
2023-03-02T23:44:55.851Z,79.36
2023-03-02T23:47:23.010Z,79.38
2023-03-02T23:49:50.321Z,78.93
2023-03-02T23:52:17.245Z,78.96
2023-03-02T23:54:46.826Z,78.99
2023-03-02T23:57:14.262Z,78.84
2023-03-02T23:59:41.544Z,78.60
